sensor_id;sensor_type;location;lat;lon;timestamp;P1;durP1;ratioP1;P2;durP2;ratioP2
45714;SDS011;31430;61.646;24.704;2023-04-06T00:03:18;45.72;;;42.88;;
45714;SDS011;31430;61.646;24.704;2023-04-06T00:19:34;76.40;;;71.72;;
45714;SDS011;31430;61.646;24.704;2023-04-06T00:22:00;65.63;;;61.58;;
45714;SDS011;31430;61.646;24.704;2023-04-06T00:24:27;60.50;;;56.75;;
45714;SDS011;31430;61.646;24.704;2023-04-06T00:26:52;53.40;;;50.10;;
45714;SDS011;31430;61.646;24.704;2023-04-06T00:29:18;52.65;;;49.38;;
45714;SDS011;31430;61.646;24.704;2023-04-06T00:31:44;50.28;;;47.15;;
45714;SDS011;31430;61.646;24.704;2023-04-06T00:34:10;46.15;;;43.28;;
45714;SDS011;31430;61.646;24.704;2023-04-06T00:36:36;46.47;;;43.58;;
45714;SDS011;31430;61.646;24.704;2023-04-06T00:39:02;44.95;;;42.15;;
45714;SDS011;31430;61.646;24.704;2023-04-06T00:41:27;45.22;;;42.42;;
45714;SDS011;31430;61.646;24.704;2023-04-06T00:43:53;45.28;;;42.47;;
45714;SDS011;31430;61.646;24.704;2023-04-06T00:46:19;43.63;;;40.92;;
45714;SDS011;31430;61.646;24.704;2023-04-06T00:48:45;43.53;;;40.83;;
45714;SDS011;31430;61.646;24.704;2023-04-06T00:51:11;42.33;;;39.70;;
45714;SDS011;31430;61.646;24.704;2023-04-06T00:53:37;43.42;;;40.72;;
45714;SDS011;31430;61.646;24.704;2023-04-06T00:56:02;42.72;;;40.05;;
45714;SDS011;31430;61.646;24.704;2023-04-06T00:58:28;42.97;;;40.28;;
45714;SDS011;31430;61.646;24.704;2023-04-06T01:00:54;43.20;;;40.50;;
45714;SDS011;31430;61.646;24.704;2023-04-06T01:03:20;40.50;;;38.00;;
45714;SDS011;31430;61.646;24.704;2023-04-06T01:05:46;43.42;;;40.72;;
45714;SDS011;31430;61.646;24.704;2023-04-06T01:08:11;42.25;;;39.65;;
45714;SDS011;31430;61.646;24.704;2023-04-06T01:10:37;42.45;;;39.80;;
45714;SDS011;31430;61.646;24.704;2023-04-06T01:13:03;42.22;;;39.60;;
45714;SDS011;31430;61.646;24.704;2023-04-06T01:15:29;42.03;;;39.42;;
45714;SDS011;31430;61.646;24.704;2023-04-06T01:17:55;41.38;;;38.78;;
45714;SDS011;31430;61.646;24.704;2023-04-06T01:20:20;43.00;;;40.30;;
45714;SDS011;31430;61.646;24.704;2023-04-06T01:22:46;43.40;;;40.70;;
45714;SDS011;31430;61.646;24.704;2023-04-06T01:25:12;42.33;;;39.70;;
45714;SDS011;31430;61.646;24.704;2023-04-06T01:27:38;42.53;;;39.88;;
45714;SDS011;31430;61.646;24.704;2023-04-06T01:30:04;43.85;;;41.13;;
45714;SDS011;31430;61.646;24.704;2023-04-06T01:32:45;43.00;;;40.30;;
45714;SDS011;31430;61.646;24.704;2023-04-06T01:35:11;42.47;;;39.83;;
45714;SDS011;31430;61.646;24.704;2023-04-06T01:37:37;44.63;;;41.83;;
45714;SDS011;31430;61.646;24.704;2023-04-06T01:40:02;42.88;;;40.20;;
45714;SDS011;31430;61.646;24.704;2023-04-06T01:42:29;43.83;;;41.10;;
45714;SDS011;31430;61.646;24.704;2023-04-06T01:44:55;42.38;;;39.72;;
45714;SDS011;31430;61.646;24.704;2023-04-06T01:47:21;41.90;;;39.30;;
45714;SDS011;31430;61.646;24.704;2023-04-06T01:49:46;41.80;;;39.20;;
45714;SDS011;31430;61.646;24.704;2023-04-06T01:52:12;42.55;;;39.90;;
45714;SDS011;31430;61.646;24.704;2023-04-06T01:54:39;43.40;;;40.70;;
45714;SDS011;31430;61.646;24.704;2023-04-06T01:57:04;44.90;;;42.10;;
45714;SDS011;31430;61.646;24.704;2023-04-06T01:59:30;42.60;;;39.95;;
45714;SDS011;31430;61.646;24.704;2023-04-06T02:01:56;44.97;;;42.17;;
45714;SDS011;31430;61.646;24.704;2023-04-06T02:04:21;43.63;;;40.92;;
45714;SDS011;31430;61.646;24.704;2023-04-06T02:06:47;44.67;;;41.88;;
45714;SDS011;31430;61.646;24.704;2023-04-06T02:09:13;43.60;;;40.90;;
45714;SDS011;31430;61.646;24.704;2023-04-06T02:11:39;42.17;;;39.58;;
45714;SDS011;31430;61.646;24.704;2023-04-06T02:14:05;43.67;;;40.97;;
45714;SDS011;31430;61.646;24.704;2023-04-06T02:16:30;43.08;;;40.38;;
45714;SDS011;31430;61.646;24.704;2023-04-06T02:18:56;43.05;;;40.35;;
45714;SDS011;31430;61.646;24.704;2023-04-06T02:21:22;43.33;;;40.63;;
45714;SDS011;31430;61.646;24.704;2023-04-06T02:23:47;42.85;;;40.17;;
45714;SDS011;31430;61.646;24.704;2023-04-06T02:26:14;42.53;;;39.88;;
45714;SDS011;31430;61.646;24.704;2023-04-06T02:28:40;42.20;;;39.60;;
45714;SDS011;31430;61.646;24.704;2023-04-06T02:31:06;42.55;;;39.90;;
45714;SDS011;31430;61.646;24.704;2023-04-06T02:33:32;43.78;;;41.08;;
45714;SDS011;31430;61.646;24.704;2023-04-06T02:35:58;43.97;;;41.25;;
45714;SDS011;31430;61.646;24.704;2023-04-06T02:38:23;43.40;;;40.70;;
45714;SDS011;31430;61.646;24.704;2023-04-06T02:40:49;43.05;;;40.35;;
45714;SDS011;31430;61.646;24.704;2023-04-06T02:43:15;44.55;;;41.78;;
45714;SDS011;31430;61.646;24.704;2023-04-06T02:45:42;43.10;;;40.40;;
45714;SDS011;31430;61.646;24.704;2023-04-06T02:48:07;44.42;;;41.65;;
45714;SDS011;31430;61.646;24.704;2023-04-06T02:50:33;45.30;;;42.50;;
45714;SDS011;31430;61.646;24.704;2023-04-06T02:52:59;44.88;;;42.08;;
45714;SDS011;31430;61.646;24.704;2023-04-06T02:55:25;44.70;;;41.90;;
45714;SDS011;31430;61.646;24.704;2023-04-06T02:57:50;43.58;;;40.88;;
45714;SDS011;31430;61.646;24.704;2023-04-06T03:00:16;45.40;;;42.58;;
45714;SDS011;31430;61.646;24.704;2023-04-06T03:02:42;43.80;;;41.10;;
45714;SDS011;31430;61.646;24.704;2023-04-06T03:05:08;43.08;;;40.38;;
45714;SDS011;31430;61.646;24.704;2023-04-06T03:07:34;45.28;;;42.47;;
45714;SDS011;31430;61.646;24.704;2023-04-06T03:09:59;45.25;;;42.45;;
45714;SDS011;31430;61.646;24.704;2023-04-06T03:12:25;44.38;;;41.60;;
45714;SDS011;31430;61.646;24.704;2023-04-06T03:14:51;46.00;;;43.13;;
45714;SDS011;31430;61.646;24.704;2023-04-06T03:17:16;46.42;;;43.53;;
45714;SDS011;31430;61.646;24.704;2023-04-06T03:19:42;43.30;;;40.60;;
45714;SDS011;31430;61.646;24.704;2023-04-06T03:22:08;43.58;;;40.88;;
45714;SDS011;31430;61.646;24.704;2023-04-06T03:24:33;42.85;;;40.17;;
45714;SDS011;31430;61.646;24.704;2023-04-06T03:26:59;43.80;;;41.10;;
45714;SDS011;31430;61.646;24.704;2023-04-06T03:29:25;43.53;;;40.83;;
45714;SDS011;31430;61.646;24.704;2023-04-06T03:31:52;43.53;;;40.83;;
45714;SDS011;31430;61.646;24.704;2023-04-06T03:34:17;44.00;;;41.28;;
45714;SDS011;31430;61.646;24.704;2023-04-06T03:36:43;42.80;;;40.10;;
45714;SDS011;31430;61.646;24.704;2023-04-06T03:39:09;42.90;;;40.20;;
45714;SDS011;31430;61.646;24.704;2023-04-06T03:41:34;43.50;;;40.80;;
45714;SDS011;31430;61.646;24.704;2023-04-06T03:44:00;43.97;;;41.28;;
45714;SDS011;31430;61.646;24.704;2023-04-06T03:46:26;43.65;;;40.95;;
45714;SDS011;31430;61.646;24.704;2023-04-06T03:48:52;44.05;;;41.30;;
45714;SDS011;31430;61.646;24.704;2023-04-06T03:51:18;44.90;;;42.10;;
45714;SDS011;31430;61.646;24.704;2023-04-06T03:53:43;45.50;;;42.70;;
45714;SDS011;31430;61.646;24.704;2023-04-06T03:56:09;43.60;;;40.90;;
45714;SDS011;31430;61.646;24.704;2023-04-06T03:58:35;43.85;;;41.13;;
45714;SDS011;31430;61.646;24.704;2023-04-06T04:01:00;44.05;;;41.33;;
45714;SDS011;31430;61.646;24.704;2023-04-06T04:03:26;45.97;;;43.10;;
45714;SDS011;31430;61.646;24.704;2023-04-06T04:05:52;44.42;;;41.65;;
45714;SDS011;31430;61.646;24.704;2023-04-06T04:08:20;43.72;;;41.03;;
45714;SDS011;31430;61.646;24.704;2023-04-06T04:10:46;44.80;;;42.00;;
45714;SDS011;31430;61.646;24.704;2023-04-06T04:13:12;43.90;;;41.17;;
45714;SDS011;31430;61.646;24.704;2023-04-06T04:15:37;45.00;;;42.20;;
45714;SDS011;31430;61.646;24.704;2023-04-06T04:18:03;44.78;;;41.97;;
45714;SDS011;31430;61.646;24.704;2023-04-06T04:20:29;44.25;;;41.50;;
45714;SDS011;31430;61.646;24.704;2023-04-06T04:22:54;45.08;;;42.28;;
45714;SDS011;31430;61.646;24.704;2023-04-06T04:25:20;45.33;;;42.53;;
45714;SDS011;31430;61.646;24.704;2023-04-06T04:27:46;44.63;;;41.85;;
45714;SDS011;31430;61.646;24.704;2023-04-06T04:30:11;43.65;;;40.95;;
45714;SDS011;31430;61.646;24.704;2023-04-06T04:32:37;43.80;;;41.10;;
45714;SDS011;31430;61.646;24.704;2023-04-06T04:35:03;43.47;;;40.78;;
45714;SDS011;31430;61.646;24.704;2023-04-06T04:37:29;43.65;;;40.95;;
45714;SDS011;31430;61.646;24.704;2023-04-06T04:39:54;43.38;;;40.67;;
45714;SDS011;31430;61.646;24.704;2023-04-06T04:42:20;45.13;;;42.33;;
45714;SDS011;31430;61.646;24.704;2023-04-06T04:44:46;42.75;;;40.08;;
45714;SDS011;31430;61.646;24.704;2023-04-06T04:49:38;44.58;;;41.78;;
45714;SDS011;31430;61.646;24.704;2023-04-06T04:52:03;45.65;;;42.83;;
45714;SDS011;31430;61.646;24.704;2023-04-06T04:54:29;43.72;;;41.03;;
45714;SDS011;31430;61.646;24.704;2023-04-06T04:56:55;42.58;;;39.92;;
45714;SDS011;31430;61.646;24.704;2023-04-06T04:59:21;42.83;;;40.15;;
45714;SDS011;31430;61.646;24.704;2023-04-06T05:01:46;42.03;;;39.42;;
45714;SDS011;31430;61.646;24.704;2023-04-06T05:04:12;41.05;;;38.47;;
45714;SDS011;31430;61.646;24.704;2023-04-06T05:09:03;46.65;;;43.75;;
45714;SDS011;31430;61.646;24.704;2023-04-06T05:13:55;47.05;;;44.15;;
45714;SDS011;31430;61.646;24.704;2023-04-06T05:16:21;43.72;;;41.03;;
45714;SDS011;31430;61.646;24.704;2023-04-06T05:21:13;55.10;;;51.67;;
45714;SDS011;31430;61.646;24.704;2023-04-06T05:26:05;47.80;;;44.83;;
45714;SDS011;31430;61.646;24.704;2023-04-06T05:30:57;47.00;;;44.10;;
45714;SDS011;31430;61.646;24.704;2023-04-06T05:35:49;46.95;;;44.05;;
45714;SDS011;31430;61.646;24.704;2023-04-06T05:40:40;45.72;;;42.88;;
45714;SDS011;31430;61.646;24.704;2023-04-06T05:45:33;47.13;;;44.20;;
45714;SDS011;31430;61.646;24.704;2023-04-06T05:47:59;45.42;;;42.60;;
45714;SDS011;31430;61.646;24.704;2023-04-06T05:50:26;42.80;;;40.13;;
45714;SDS011;31430;61.646;24.704;2023-04-06T05:55:17;44.03;;;41.30;;
45714;SDS011;31430;61.646;24.704;2023-04-06T06:00:09;45.38;;;42.55;;
45714;SDS011;31430;61.646;24.704;2023-04-06T06:02:35;44.22;;;41.47;;
45714;SDS011;31430;61.646;24.704;2023-04-06T06:05:01;43.33;;;40.63;;
45714;SDS011;31430;61.646;24.704;2023-04-06T06:07:27;41.42;;;38.83;;
45714;SDS011;31430;61.646;24.704;2023-04-06T06:09:56;41.22;;;38.63;;
45714;SDS011;31430;61.646;24.704;2023-04-06T06:12:22;41.53;;;38.92;;
45714;SDS011;31430;61.646;24.704;2023-04-06T06:14:48;40.35;;;37.85;;
45714;SDS011;31430;61.646;24.704;2023-04-06T06:17:14;39.80;;;37.30;;
45714;SDS011;31430;61.646;24.704;2023-04-06T06:19:40;39.85;;;37.35;;
45714;SDS011;31430;61.646;24.704;2023-04-06T06:24:31;41.20;;;38.63;;
45714;SDS011;31430;61.646;24.704;2023-04-06T06:26:57;40.85;;;38.33;;
45714;SDS011;31430;61.646;24.704;2023-04-06T06:29:23;39.28;;;36.83;;
45714;SDS011;31430;61.646;24.704;2023-04-06T06:34:15;42.22;;;39.60;;
45714;SDS011;31430;61.646;24.704;2023-04-06T06:39:06;41.80;;;39.20;;
45714;SDS011;31430;61.646;24.704;2023-04-06T06:41:32;39.55;;;37.08;;
45714;SDS011;31430;61.646;24.704;2023-04-06T06:46:23;41.00;;;38.45;;
45714;SDS011;31430;61.646;24.704;2023-04-06T06:48:49;40.92;;;38.38;;
45714;SDS011;31430;61.646;24.704;2023-04-06T06:51:14;38.97;;;36.58;;
45714;SDS011;31430;61.646;24.704;2023-04-06T06:53:40;38.80;;;36.40;;
45714;SDS011;31430;61.646;24.704;2023-04-06T06:56:06;38.22;;;35.83;;
45714;SDS011;31430;61.646;24.704;2023-04-06T06:58:31;38.85;;;36.45;;
45714;SDS011;31430;61.646;24.704;2023-04-06T07:00:57;38.17;;;35.78;;
45714;SDS011;31430;61.646;24.704;2023-04-06T07:03:24;37.28;;;34.97;;
45714;SDS011;31430;61.646;24.704;2023-04-06T07:05:50;36.60;;;34.30;;
45714;SDS011;31430;61.646;24.704;2023-04-06T07:08:19;36.80;;;34.50;;
45714;SDS011;31430;61.646;24.704;2023-04-06T07:10:46;37.63;;;35.28;;
45714;SDS011;31430;61.646;24.704;2023-04-06T07:13:12;36.35;;;34.08;;
45714;SDS011;31430;61.646;24.704;2023-04-06T07:15:43;36.65;;;34.35;;
45714;SDS011;31430;61.646;24.704;2023-04-06T07:18:08;35.95;;;33.72;;
45714;SDS011;31430;61.646;24.704;2023-04-06T07:20:34;36.03;;;33.78;;
45714;SDS011;31430;61.646;24.704;2023-04-06T07:23:00;37.03;;;34.72;;
45714;SDS011;31430;61.646;24.704;2023-04-06T07:25:27;35.92;;;33.70;;
45714;SDS011;31430;61.646;24.704;2023-04-06T07:27:53;35.40;;;33.20;;
45714;SDS011;31430;61.646;24.704;2023-04-06T07:30:18;35.30;;;33.10;;
45714;SDS011;31430;61.646;24.704;2023-04-06T07:32:45;35.78;;;33.55;;
45714;SDS011;31430;61.646;24.704;2023-04-06T07:35:11;36.35;;;34.05;;
45714;SDS011;31430;61.646;24.704;2023-04-06T07:37:36;36.15;;;33.90;;
45714;SDS011;31430;61.646;24.704;2023-04-06T07:40:02;36.30;;;34.03;;
45714;SDS011;31430;61.646;24.704;2023-04-06T07:42:28;35.47;;;33.28;;
45714;SDS011;31430;61.646;24.704;2023-04-06T07:44:54;35.58;;;33.38;;
45714;SDS011;31430;61.646;24.704;2023-04-06T07:47:19;35.00;;;32.80;;
45714;SDS011;31430;61.646;24.704;2023-04-06T07:49:46;35.70;;;33.47;;
45714;SDS011;31430;61.646;24.704;2023-04-06T07:52:11;35.83;;;33.60;;
45714;SDS011;31430;61.646;24.704;2023-04-06T07:54:37;36.38;;;34.10;;
45714;SDS011;31430;61.646;24.704;2023-04-06T07:57:03;36.05;;;33.80;;
45714;SDS011;31430;61.646;24.704;2023-04-06T07:59:28;35.00;;;32.80;;
45714;SDS011;31430;61.646;24.704;2023-04-06T08:01:54;35.13;;;32.92;;
45714;SDS011;31430;61.646;24.704;2023-04-06T08:04:20;35.10;;;32.90;;
45714;SDS011;31430;61.646;24.704;2023-04-06T08:06:45;36.38;;;34.10;;
45714;SDS011;31430;61.646;24.704;2023-04-06T08:09:11;35.33;;;33.13;;
45714;SDS011;31430;61.646;24.704;2023-04-06T08:11:37;34.50;;;32.35;;
45714;SDS011;31430;61.646;24.704;2023-04-06T08:14:02;34.15;;;32.03;;
45714;SDS011;31430;61.646;24.704;2023-04-06T08:16:28;34.88;;;32.67;;
45714;SDS011;31430;61.646;24.704;2023-04-06T08:21:20;36.17;;;33.92;;
45714;SDS011;31430;61.646;24.704;2023-04-06T08:23:46;36.75;;;34.45;;
45714;SDS011;31430;61.646;24.704;2023-04-06T08:26:11;35.90;;;33.67;;
45714;SDS011;31430;61.646;24.704;2023-04-06T08:28:37;34.60;;;32.42;;
45714;SDS011;31430;61.646;24.704;2023-04-06T08:31:06;35.28;;;33.08;;
45714;SDS011;31430;61.646;24.704;2023-04-06T08:33:34;34.38;;;32.25;;
45714;SDS011;31430;61.646;24.704;2023-04-06T08:36:13;34.88;;;32.67;;
45714;SDS011;31430;61.646;24.704;2023-04-06T08:38:40;33.70;;;31.60;;
45714;SDS011;31430;61.646;24.704;2023-04-06T08:41:08;35.53;;;33.33;;
45714;SDS011;31430;61.646;24.704;2023-04-06T08:43:46;33.63;;;31.52;;
45714;SDS011;31430;61.646;24.704;2023-04-06T08:46:13;35.20;;;33.00;;
45714;SDS011;31430;61.646;24.704;2023-04-06T08:48:40;33.75;;;31.65;;
45714;SDS011;31430;61.646;24.704;2023-04-06T08:51:11;33.50;;;31.40;;
45714;SDS011;31430;61.646;24.704;2023-04-06T08:53:38;31.77;;;29.77;;
45714;SDS011;31430;61.646;24.704;2023-04-06T08:56:04;31.60;;;29.60;;
45714;SDS011;31430;61.646;24.704;2023-04-06T08:58:37;32.17;;;30.17;;
45714;SDS011;31430;61.646;24.704;2023-04-06T09:01:08;31.90;;;29.90;;
45714;SDS011;31430;61.646;24.704;2023-04-06T09:03:37;31.80;;;29.80;;
45714;SDS011;31430;61.646;24.704;2023-04-06T09:06:07;32.30;;;30.30;;
45714;SDS011;31430;61.646;24.704;2023-04-06T09:08:34;33.17;;;31.08;;
45714;SDS011;31430;61.646;24.704;2023-04-06T09:11:03;32.15;;;30.15;;
45714;SDS011;31430;61.646;24.704;2023-04-06T09:13:29;32.00;;;30.00;;
45714;SDS011;31430;61.646;24.704;2023-04-06T09:15:59;31.80;;;29.80;;
45714;SDS011;31430;61.646;24.704;2023-04-06T09:18:32;31.60;;;29.60;;
45714;SDS011;31430;61.646;24.704;2023-04-06T09:23:25;32.05;;;30.05;;
45714;SDS011;31430;61.646;24.704;2023-04-06T09:25:51;33.30;;;31.20;;
45714;SDS011;31430;61.646;24.704;2023-04-06T09:28:17;31.73;;;29.73;;
45714;SDS011;31430;61.646;24.704;2023-04-06T09:30:49;32.75;;;30.70;;
45714;SDS011;31430;61.646;24.704;2023-04-06T09:33:21;32.75;;;30.70;;
45714;SDS011;31430;61.646;24.704;2023-04-06T09:35:50;32.08;;;30.08;;
45714;SDS011;31430;61.646;24.704;2023-04-06T09:38:15;32.17;;;30.17;;
45714;SDS011;31430;61.646;24.704;2023-04-06T09:40:50;32.17;;;30.17;;
45714;SDS011;31430;61.646;24.704;2023-04-06T09:43:28;32.20;;;30.20;;
45714;SDS011;31430;61.646;24.704;2023-04-06T09:45:55;32.80;;;30.75;;
45714;SDS011;31430;61.646;24.704;2023-04-06T09:48:22;31.15;;;29.20;;
45714;SDS011;31430;61.646;24.704;2023-04-06T09:50:49;31.27;;;29.33;;
45714;SDS011;31430;61.646;24.704;2023-04-06T09:53:19;29.85;;;27.98;;
45714;SDS011;31430;61.646;24.704;2023-04-06T09:55:46;30.92;;;29.00;;
45714;SDS011;31430;61.646;24.704;2023-04-06T09:58:16;30.80;;;28.90;;
45714;SDS011;31430;61.646;24.704;2023-04-06T10:01:26;32.17;;;30.17;;
45714;SDS011;31430;61.646;24.704;2023-04-06T10:03:56;31.60;;;29.60;;
45714;SDS011;31430;61.646;24.704;2023-04-06T10:06:26;32.42;;;30.42;;
45714;SDS011;31430;61.646;24.704;2023-04-06T10:08:53;30.92;;;29.00;;
45714;SDS011;31430;61.646;24.704;2023-04-06T10:11:21;31.25;;;29.30;;
45714;SDS011;31430;61.646;24.704;2023-04-06T10:16:14;33.05;;;30.98;;
45714;SDS011;31430;61.646;24.704;2023-04-06T10:18:41;30.35;;;28.45;;
45714;SDS011;31430;61.646;24.704;2023-04-06T10:21:11;31.60;;;29.60;;
45714;SDS011;31430;61.646;24.704;2023-04-06T10:23:41;29.70;;;27.83;;
45714;SDS011;31430;61.646;24.704;2023-04-06T10:26:14;31.38;;;29.40;;
45714;SDS011;31430;61.646;24.704;2023-04-06T10:28:41;31.27;;;29.33;;
45714;SDS011;31430;61.646;24.704;2023-04-06T10:31:08;30.27;;;28.38;;
45714;SDS011;31430;61.646;24.704;2023-04-06T10:33:35;29.20;;;27.40;;
45714;SDS011;31430;61.646;24.704;2023-04-06T10:36:11;28.95;;;27.15;;
45714;SDS011;31430;61.646;24.704;2023-04-06T10:38:37;29.92;;;28.02;;
45714;SDS011;31430;61.646;24.704;2023-04-06T10:41:04;29.60;;;27.75;;
45714;SDS011;31430;61.646;24.704;2023-04-06T10:43:35;29.23;;;27.42;;
45714;SDS011;31430;61.646;24.704;2023-04-06T10:46:01;29.58;;;27.73;;
45714;SDS011;31430;61.646;24.704;2023-04-06T10:51:15;30.42;;;28.52;;
45714;SDS011;31430;61.646;24.704;2023-04-06T10:53:42;29.08;;;27.27;;
45714;SDS011;31430;61.646;24.704;2023-04-06T10:56:17;29.05;;;27.25;;
45714;SDS011;31430;61.646;24.704;2023-04-06T10:58:47;29.90;;;28.00;;
45714;SDS011;31430;61.646;24.704;2023-04-06T11:01:20;29.33;;;27.50;;
45714;SDS011;31430;61.646;24.704;2023-04-06T11:03:47;30.10;;;28.20;;
45714;SDS011;31430;61.646;24.704;2023-04-06T11:06:21;29.08;;;27.27;;
45714;SDS011;31430;61.646;24.704;2023-04-06T11:08:48;28.95;;;27.15;;
45714;SDS011;31430;61.646;24.704;2023-04-06T11:11:15;28.13;;;26.35;;
45714;SDS011;31430;61.646;24.704;2023-04-06T11:13:56;29.23;;;27.40;;
45714;SDS011;31430;61.646;24.704;2023-04-06T11:16:32;30.40;;;28.50;;
45714;SDS011;31430;61.646;24.704;2023-04-06T11:19:02;30.10;;;28.20;;
45714;SDS011;31430;61.646;24.704;2023-04-06T11:21:33;29.63;;;27.77;;
45714;SDS011;31430;61.646;24.704;2023-04-06T11:24:20;29.83;;;27.95;;
45714;SDS011;31430;61.646;24.704;2023-04-06T11:29:16;29.45;;;27.65;;
45714;SDS011;31430;61.646;24.704;2023-04-06T11:31:47;30.02;;;28.13;;
45714;SDS011;31430;61.646;24.704;2023-04-06T11:34:20;29.42;;;27.60;;
45714;SDS011;31430;61.646;24.704;2023-04-06T11:36:48;29.90;;;28.00;;
45714;SDS011;31430;61.646;24.704;2023-04-06T11:39:20;29.98;;;28.08;;
45714;SDS011;31430;61.646;24.704;2023-04-06T11:41:52;30.05;;;28.15;;
45714;SDS011;31430;61.646;24.704;2023-04-06T11:47:05;29.65;;;27.80;;
45714;SDS011;31430;61.646;24.704;2023-04-06T11:49:33;29.67;;;27.83;;
45714;SDS011;31430;61.646;24.704;2023-04-06T11:52:02;30.60;;;28.70;;
45714;SDS011;31430;61.646;24.704;2023-04-06T11:54:38;30.13;;;28.23;;
45714;SDS011;31430;61.646;24.704;2023-04-06T11:57:04;28.90;;;27.10;;
45714;SDS011;31430;61.646;24.704;2023-04-06T11:59:31;28.88;;;27.08;;
45714;SDS011;31430;61.646;24.704;2023-04-06T12:01:57;29.92;;;28.02;;
45714;SDS011;31430;61.646;24.704;2023-04-06T12:04:23;28.50;;;26.70;;
45714;SDS011;31430;61.646;24.704;2023-04-06T12:06:49;29.33;;;27.50;;
45714;SDS011;31430;61.646;24.704;2023-04-06T12:09:18;29.67;;;27.80;;
45714;SDS011;31430;61.646;24.704;2023-04-06T12:11:44;28.95;;;27.15;;
45714;SDS011;31430;61.646;24.704;2023-04-06T12:14:10;28.65;;;26.85;;
45714;SDS011;31430;61.646;24.704;2023-04-06T12:19:02;30.73;;;28.83;;
45714;SDS011;31430;61.646;24.704;2023-04-06T12:21:28;29.40;;;27.58;;
45714;SDS011;31430;61.646;24.704;2023-04-06T12:23:56;29.45;;;27.63;;
45714;SDS011;31430;61.646;24.704;2023-04-06T12:26:25;29.55;;;27.70;;
45714;SDS011;31430;61.646;24.704;2023-04-06T12:28:52;30.00;;;28.10;;
45714;SDS011;31430;61.646;24.704;2023-04-06T12:31:18;28.67;;;26.88;;
45714;SDS011;31430;61.646;24.704;2023-04-06T12:33:47;30.13;;;28.23;;
45714;SDS011;31430;61.646;24.704;2023-04-06T12:36:17;29.60;;;27.75;;
45714;SDS011;31430;61.646;24.704;2023-04-06T12:38:44;30.38;;;28.48;;
45714;SDS011;31430;61.646;24.704;2023-04-06T12:41:13;28.92;;;27.13;;
45714;SDS011;31430;61.646;24.704;2023-04-06T12:43:40;29.77;;;27.90;;
45714;SDS011;31430;61.646;24.704;2023-04-06T12:46:06;28.63;;;26.83;;
45714;SDS011;31430;61.646;24.704;2023-04-06T12:48:32;29.08;;;27.27;;
45714;SDS011;31430;61.646;24.704;2023-04-06T12:50:58;28.23;;;26.42;;
45714;SDS011;31430;61.646;24.704;2023-04-06T12:53:25;29.48;;;27.63;;
45714;SDS011;31430;61.646;24.704;2023-04-06T12:55:51;28.60;;;26.80;;
45714;SDS011;31430;61.646;24.704;2023-04-06T12:58:21;29.48;;;27.65;;
45714;SDS011;31430;61.646;24.704;2023-04-06T13:00:47;28.35;;;26.55;;
45714;SDS011;31430;61.646;24.704;2023-04-06T13:03:13;28.60;;;26.80;;
45714;SDS011;31430;61.646;24.704;2023-04-06T13:05:45;28.70;;;26.90;;
45714;SDS011;31430;61.646;24.704;2023-04-06T13:08:12;29.48;;;27.63;;
45714;SDS011;31430;61.646;24.704;2023-04-06T13:10:57;28.25;;;26.45;;
45714;SDS011;31430;61.646;24.704;2023-04-06T13:13:23;29.88;;;27.98;;
45714;SDS011;31430;61.646;24.704;2023-04-06T13:15:51;29.38;;;27.55;;
45714;SDS011;31430;61.646;24.704;2023-04-06T13:18:17;29.77;;;27.90;;
45714;SDS011;31430;61.646;24.704;2023-04-06T13:20:43;28.75;;;26.95;;
45714;SDS011;31430;61.646;24.704;2023-04-06T13:23:09;30.10;;;28.20;;
45714;SDS011;31430;61.646;24.704;2023-04-06T13:28:01;31.15;;;29.20;;
45714;SDS011;31430;61.646;24.704;2023-04-06T13:30:27;29.67;;;27.83;;
45714;SDS011;31430;61.646;24.704;2023-04-06T13:32:52;29.05;;;27.25;;
45714;SDS011;31430;61.646;24.704;2023-04-06T13:35:18;29.33;;;27.50;;
45714;SDS011;31430;61.646;24.704;2023-04-06T13:37:44;27.65;;;25.95;;
45714;SDS011;31430;61.646;24.704;2023-04-06T13:40:10;29.00;;;27.20;;
45714;SDS011;31430;61.646;24.704;2023-04-06T13:45:03;30.37;;;28.47;;
45714;SDS011;31430;61.646;24.704;2023-04-06T13:47:29;29.88;;;28.00;;
45714;SDS011;31430;61.646;24.704;2023-04-06T13:49:55;29.15;;;27.35;;
45714;SDS011;31430;61.646;24.704;2023-04-06T13:52:21;28.63;;;26.83;;
45714;SDS011;31430;61.646;24.704;2023-04-06T13:57:16;30.20;;;28.30;;
45714;SDS011;31430;61.646;24.704;2023-04-06T13:59:42;29.48;;;27.63;;
45714;SDS011;31430;61.646;24.704;2023-04-06T14:02:08;27.58;;;25.88;;
45714;SDS011;31430;61.646;24.704;2023-04-06T14:04:34;29.23;;;27.40;;
45714;SDS011;31430;61.646;24.704;2023-04-06T14:07:01;27.42;;;25.73;;
45714;SDS011;31430;61.646;24.704;2023-04-06T14:09:28;28.25;;;26.45;;
45714;SDS011;31430;61.646;24.704;2023-04-06T14:11:54;28.55;;;26.75;;
45714;SDS011;31430;61.646;24.704;2023-04-06T14:16:47;29.42;;;27.60;;
45714;SDS011;31430;61.646;24.704;2023-04-06T14:19:14;27.98;;;26.23;;
45714;SDS011;31430;61.646;24.704;2023-04-06T14:21:47;30.15;;;28.25;;
45714;SDS011;31430;61.646;24.704;2023-04-06T14:24:13;29.45;;;27.63;;
45714;SDS011;31430;61.646;24.704;2023-04-06T14:26:41;28.45;;;26.65;;
45714;SDS011;31430;61.646;24.704;2023-04-06T14:29:07;28.73;;;26.92;;
45714;SDS011;31430;61.646;24.704;2023-04-06T14:31:34;28.70;;;26.90;;
45714;SDS011;31430;61.646;24.704;2023-04-06T14:34:01;27.35;;;25.65;;
45714;SDS011;31430;61.646;24.704;2023-04-06T14:36:27;28.17;;;26.40;;
45714;SDS011;31430;61.646;24.704;2023-04-06T14:38:58;28.38;;;26.58;;
45714;SDS011;31430;61.646;24.704;2023-04-06T14:41:24;27.13;;;25.42;;
45714;SDS011;31430;61.646;24.704;2023-04-06T14:43:52;28.92;;;27.13;;
45714;SDS011;31430;61.646;24.704;2023-04-06T14:46:18;27.90;;;26.15;;
45714;SDS011;31430;61.646;24.704;2023-04-06T14:48:44;27.27;;;25.58;;
45714;SDS011;31430;61.646;24.704;2023-04-06T14:51:11;28.25;;;26.45;;
45714;SDS011;31430;61.646;24.704;2023-04-06T14:53:37;26.77;;;25.08;;
45714;SDS011;31430;61.646;24.704;2023-04-06T14:56:03;27.73;;;26.00;;
45714;SDS011;31430;61.646;24.704;2023-04-06T15:00:55;30.75;;;28.85;;
45714;SDS011;31430;61.646;24.704;2023-04-06T15:03:23;28.95;;;27.15;;
45714;SDS011;31430;61.646;24.704;2023-04-06T15:05:50;28.73;;;26.92;;
45714;SDS011;31430;61.646;24.704;2023-04-06T15:08:20;28.55;;;26.75;;
45714;SDS011;31430;61.646;24.704;2023-04-06T15:10:47;27.20;;;25.50;;
45714;SDS011;31430;61.646;24.704;2023-04-06T15:13:14;27.88;;;26.13;;
45714;SDS011;31430;61.646;24.704;2023-04-06T15:15:41;28.10;;;26.33;;
45714;SDS011;31430;61.646;24.704;2023-04-06T15:18:07;28.58;;;26.77;;
45714;SDS011;31430;61.646;24.704;2023-04-06T15:20:34;27.77;;;26.05;;
45714;SDS011;31430;61.646;24.704;2023-04-06T15:23:00;28.77;;;26.98;;
45714;SDS011;31430;61.646;24.704;2023-04-06T15:25:27;28.13;;;26.35;;
45714;SDS011;31430;61.646;24.704;2023-04-06T15:27:53;28.30;;;26.50;;
45714;SDS011;31430;61.646;24.704;2023-04-06T15:30:20;28.75;;;26.95;;